createdAt,value
2023-01-29T00:01:56.282Z,4.90
2023-01-29T00:05:25.465Z,4.56
2023-01-29T00:08:07.242Z,5.02
2023-01-29T00:10:50.959Z,4.98
2023-01-29T00:13:33.289Z,4.56
2023-01-29T00:16:33.178Z,4.95
2023-01-29T00:19:15.970Z,4.73
2023-01-29T00:21:48.603Z,4.93
2023-01-29T00:24:21.359Z,4.90
2023-01-29T00:26:52.621Z,4.93
2023-01-29T00:29:20.384Z,4.96
2023-01-29T00:32:09.329Z,4.93
2023-01-29T00:34:47.872Z,4.92
2023-01-29T00:37:23.819Z,3.99
2023-01-29T00:39:53.606Z,3.45
2023-01-29T00:43:05.406Z,4.42
2023-01-29T00:45:47.212Z,4.81
2023-01-29T00:48:16.812Z,4.81
2023-01-29T00:51:08.133Z,4.14
2023-01-29T00:53:55.145Z,4.77
2023-01-29T00:56:41.069Z,4.59
2023-01-29T00:59:15.895Z,4.37
2023-01-29T01:02:12.938Z,4.67
2023-01-29T01:05:01.373Z,4.70
2023-01-29T01:07:41.361Z,4.70
2023-01-29T01:10:38.261Z,4.74
2023-01-29T01:13:23.743Z,4.72
2023-01-29T01:16:11.758Z,4.67
2023-01-29T01:18:56.928Z,4.68
2023-01-29T01:21:38.395Z,4.77
2023-01-29T01:24:22.251Z,4.69
2023-01-29T01:27:04.357Z,4.54
2023-01-29T01:29:49.712Z,4.82
2023-01-29T01:32:28.005Z,4.77
2023-01-29T01:34:59.258Z,4.66
2023-01-29T01:37:46.211Z,4.63
2023-01-29T01:40:21.564Z,4.82
2023-01-29T01:42:56.279Z,4.75
2023-01-29T01:45:48.872Z,4.68
2023-01-29T01:48:27.420Z,4.33
2023-01-29T01:51:08.379Z,4.64
2023-01-29T01:54:05.924Z,4.20
2023-01-29T01:56:54.971Z,4.27
2023-01-29T01:59:36.012Z,4.67
2023-01-29T02:02:22.949Z,4.16
2023-01-29T02:05:12.474Z,4.62
2023-01-29T02:08:07.695Z,4.38
2023-01-29T02:10:48.954Z,4.40
2023-01-29T02:13:27.541Z,4.13
2023-01-29T02:15:54.090Z,4.50
2023-01-29T02:18:22.125Z,4.55
2023-01-29T02:21:29.222Z,4.21
2023-01-29T02:24:07.681Z,4.49
2023-01-29T02:26:59.945Z,4.54
2023-01-29T02:29:56.415Z,4.42
2023-01-29T02:32:56.676Z,4.10
2023-01-29T02:35:35.154Z,4.48
2023-01-29T02:38:37.063Z,4.15
2023-01-29T02:41:37.233Z,4.34
2023-01-29T02:44:15.594Z,4.15
2023-01-29T02:47:04.143Z,4.22
2023-01-29T02:49:40.097Z,4.26
2023-01-29T02:52:26.822Z,4.00
2023-01-29T02:55:09.407Z,4.23
2023-01-29T02:57:46.208Z,4.35
2023-01-29T03:03:34.987Z,4.28
2023-01-29T03:06:28.313Z,4.23
2023-01-29T03:09:02.178Z,4.24
2023-01-29T03:11:35.539Z,4.29
2023-01-29T03:14:55.324Z,4.18
2023-01-29T03:17:33.957Z,4.03
2023-01-29T03:20:16.282Z,4.03
2023-01-29T03:22:51.913Z,3.83
2023-01-29T03:25:41.811Z,4.02
2023-01-29T03:28:30.913Z,4.07
2023-01-29T03:31:26.076Z,3.55
2023-01-29T03:34:10.008Z,3.83
2023-01-29T03:37:09.527Z,3.88
2023-01-29T03:39:37.072Z,3.77
2023-01-29T03:42:18.884Z,3.99
2023-01-29T03:45:00.491Z,3.91
2023-01-29T03:48:04.561Z,3.89
2023-01-29T03:50:56.950Z,3.91
2023-01-29T03:53:23.454Z,3.18
2023-01-29T03:55:59.943Z,3.96
2023-01-29T03:58:57.949Z,3.00
2023-01-29T04:01:40.894Z,3.90
2023-01-29T04:04:19.402Z,3.90
2023-01-29T04:06:53.194Z,3.78
2023-01-29T04:09:32.118Z,3.93
2023-01-29T04:12:14.425Z,3.18
2023-01-29T04:14:43.613Z,3.31
2023-01-29T04:17:30.127Z,3.68
2023-01-29T04:20:14.125Z,3.73
2023-01-29T04:22:47.989Z,2.11
2023-01-29T04:25:29.814Z,3.72
2023-01-29T04:28:21.763Z,3.57
2023-01-29T04:30:59.135Z,3.17
2023-01-29T04:34:03.248Z,3.74
2023-01-29T04:36:56.733Z,3.39
2023-01-29T04:39:53.822Z,3.63
2023-01-29T04:42:39.082Z,3.69
2023-01-29T04:45:18.286Z,3.60
2023-01-29T04:48:29.953Z,3.69
2023-01-29T04:51:07.268Z,3.26
2023-01-29T04:54:20.658Z,3.78
2023-01-29T04:57:07.111Z,3.76
2023-01-29T04:59:49.148Z,3.64
2023-01-29T05:02:27.447Z,3.51
2023-01-29T05:04:56.065Z,3.14
2023-01-29T05:07:27.364Z,3.34
2023-01-29T05:09:55.698Z,3.58
2023-01-29T05:12:29.978Z,3.36
2023-01-29T05:15:03.084Z,3.52
2023-01-29T05:17:29.889Z,3.40
2023-01-29T05:19:59.550Z,3.41
2023-01-29T05:22:57.783Z,3.52
2023-01-29T05:25:34.857Z,3.43
2023-01-29T05:28:16.715Z,3.44
2023-01-29T05:30:48.787Z,3.32
2023-01-29T05:33:25.340Z,3.32
2023-01-29T05:35:52.380Z,3.35
2023-01-29T05:38:29.097Z,3.20
2023-01-29T05:43:39.779Z,3.22
2023-01-29T05:46:08.837Z,3.31
2023-01-29T05:48:42.727Z,3.17
2023-01-29T05:51:09.361Z,3.03
2023-01-29T05:53:36.080Z,3.36
2023-01-29T05:56:04.455Z,3.47
2023-01-29T05:58:45.246Z,3.35
2023-01-29T06:01:25.764Z,3.26
2023-01-29T06:03:52.933Z,3.41
2023-01-29T06:06:19.609Z,3.32
2023-01-29T06:08:46.792Z,3.32
2023-01-29T06:11:15.078Z,3.14
2023-01-29T06:13:41.675Z,3.29
2023-01-29T06:16:09.607Z,3.18
2023-01-29T06:18:48.975Z,3.13
2023-01-29T06:21:19.967Z,3.26
2023-01-29T06:23:47.666Z,2.80
2023-01-29T06:26:15.819Z,3.22
2023-01-29T06:28:43.021Z,3.03
2023-01-29T06:31:28.433Z,3.16
2023-01-29T06:33:57.850Z,3.22
2023-01-29T06:36:30.157Z,3.07
2023-01-29T06:38:59.763Z,3.00
2023-01-29T06:41:51.167Z,2.80
2023-01-29T06:44:17.738Z,3.06
2023-01-29T06:46:46.924Z,3.17
2023-01-29T06:52:15.861Z,3.27
2023-01-29T06:54:42.436Z,3.13
2023-01-29T06:57:11.850Z,3.20
2023-01-29T06:59:38.388Z,2.39
2023-01-29T07:02:18.191Z,3.25
2023-01-29T07:04:44.888Z,3.12
2023-01-29T07:07:16.322Z,3.04
2023-01-29T07:09:44.841Z,3.16
2023-01-29T07:12:11.931Z,2.90
2023-01-29T07:14:38.493Z,2.91
2023-01-29T07:17:05.029Z,3.27
2023-01-29T07:19:31.762Z,3.29
2023-01-29T07:22:07.203Z,3.31
2023-01-29T07:24:33.951Z,3.19
2023-01-29T07:27:07.087Z,3.15
2023-01-29T07:29:33.829Z,3.36
2023-01-29T07:32:06.680Z,3.39
2023-01-29T07:34:37.124Z,2.67
2023-01-29T07:37:07.028Z,3.09
2023-01-29T07:42:23.495Z,3.53
2023-01-29T07:45:01.958Z,3.54
2023-01-29T07:47:34.935Z,3.24
2023-01-29T07:50:05.567Z,3.62
2023-01-29T07:52:33.939Z,3.39
2023-01-29T07:55:02.352Z,3.65
2023-01-29T07:57:40.443Z,3.41
2023-01-29T08:00:10.552Z,3.53
2023-01-29T08:02:37.687Z,3.42
2023-01-29T08:05:06.443Z,3.32
2023-01-29T08:07:36.214Z,3.54
2023-01-29T08:10:13.352Z,3.70
2023-01-29T08:12:47.218Z,3.68
2023-01-29T08:15:21.194Z,3.75
2023-01-29T08:20:41.217Z,3.72
2023-01-29T08:23:13.225Z,3.91
2023-01-29T08:25:39.876Z,3.69
2023-01-29T08:28:35.642Z,4.06
2023-01-29T08:31:05.478Z,4.01
2023-01-29T08:36:35.766Z,4.06
2023-01-29T08:39:05.579Z,3.67
2023-01-29T08:41:40.696Z,4.22
2023-01-29T08:44:09.636Z,4.12
2023-01-29T08:46:44.649Z,4.08
2023-01-29T08:49:12.410Z,3.95
2023-01-29T08:51:39.039Z,4.34
2023-01-29T08:54:15.755Z,4.42
2023-01-29T08:56:44.233Z,4.27
2023-01-29T08:59:21.399Z,4.25
2023-01-29T09:01:48.367Z,4.32
2023-01-29T09:04:27.722Z,4.19
2023-01-29T09:06:54.359Z,4.73
2023-01-29T09:09:22.526Z,4.64
2023-01-29T09:12:03.896Z,4.73
2023-01-29T09:14:31.588Z,4.50
2023-01-29T09:17:17.282Z,4.49
2023-01-29T09:19:43.874Z,4.36
2023-01-29T09:22:11.911Z,4.64
2023-01-29T09:24:44.637Z,4.71
2023-01-29T09:27:17.965Z,4.83
2023-01-29T09:29:50.132Z,4.74
2023-01-29T09:32:49.729Z,4.89
2023-01-29T09:35:07.252Z,4.93
2023-01-29T09:37:33.863Z,4.98
2023-01-29T09:40:20.704Z,4.94
2023-01-29T09:42:57.648Z,5.26
2023-01-29T09:45:25.267Z,5.35
2023-01-29T09:47:55.663Z,5.37
2023-01-29T09:50:36.767Z,5.56
2023-01-29T09:53:29.946Z,5.60
2023-01-29T09:56:10.645Z,5.42
2023-01-29T09:58:45.499Z,5.53
2023-01-29T10:01:41.112Z,6.04
2023-01-29T10:05:03.312Z,6.15
2023-01-29T10:08:16.322Z,6.33
2023-01-29T10:11:41.556Z,6.43
2023-01-29T10:14:38.092Z,5.83
2023-01-29T10:17:19.688Z,6.64
2023-01-29T10:20:11.361Z,6.56
2023-01-29T10:22:57.320Z,6.45
2023-01-29T10:25:27.309Z,6.60
2023-01-29T10:27:57.515Z,6.48
2023-01-29T10:30:33.707Z,6.22
2023-01-29T10:33:05.182Z,6.56
2023-01-29T10:35:56.887Z,6.46
2023-01-29T10:38:33.578Z,6.86
2023-01-29T10:41:30.771Z,6.14
2023-01-29T10:44:17.398Z,6.83
2023-01-29T10:47:03.096Z,6.89
2023-01-29T10:50:13.338Z,6.94
2023-01-29T10:53:05.942Z,6.56
2023-01-29T10:59:32.524Z,7.30
2023-01-29T11:02:12.808Z,7.53
2023-01-29T11:04:47.658Z,7.56
2023-01-29T11:07:19.901Z,7.52
2023-01-29T11:10:00.313Z,8.00
2023-01-29T11:12:50.263Z,8.11
2023-01-29T11:15:29.465Z,8.28
2023-01-29T11:18:15.750Z,8.39
2023-01-29T11:20:45.461Z,7.83
2023-01-29T11:23:33.165Z,7.69
2023-01-29T11:26:09.850Z,8.34
2023-01-29T11:28:44.677Z,8.45
2023-01-29T11:31:27.693Z,8.03
2023-01-29T11:34:27.864Z,7.60
2023-01-29T11:37:04.511Z,7.66
2023-01-29T11:39:33.049Z,7.70
2023-01-29T11:42:08.753Z,7.75
2023-01-29T11:44:40.887Z,7.43
2023-01-29T11:47:27.597Z,7.56
2023-01-29T11:50:20.512Z,7.45
2023-01-29T11:52:47.999Z,7.24
2023-01-29T11:55:49.833Z,7.38
2023-01-29T11:58:34.039Z,7.43
2023-01-29T12:01:02.449Z,7.33
2023-01-29T12:03:55.337Z,7.60
2023-01-29T12:06:44.665Z,7.47
2023-01-29T12:09:19.889Z,7.35
2023-01-29T12:11:49.656Z,7.43
2023-01-29T12:14:46.040Z,6.88
2023-01-29T12:17:40.663Z,7.52
2023-01-29T12:20:53.351Z,7.63
2023-01-29T12:24:14.733Z,7.48
2023-01-29T12:27:10.770Z,7.49
2023-01-29T12:29:54.889Z,7.46
2023-01-29T12:32:49.890Z,7.50
2023-01-29T12:35:48.814Z,7.47
2023-01-29T12:38:20.773Z,7.48
2023-01-29T12:40:58.019Z,7.40
2023-01-29T12:43:47.675Z,7.20
2023-01-29T12:46:26.691Z,6.55
2023-01-29T12:49:02.396Z,7.42
2023-01-29T12:51:38.791Z,7.32
2023-01-29T12:54:26.049Z,7.51
2023-01-29T12:57:13.569Z,7.49
2023-01-29T12:59:46.150Z,7.09
2023-01-29T13:02:33.099Z,7.23
2023-01-29T13:05:15.653Z,7.61
2023-01-29T13:07:56.898Z,7.55
2023-01-29T13:10:48.590Z,7.31
2023-01-29T13:13:44.103Z,7.58
2023-01-29T13:16:15.842Z,7.52
2023-01-29T13:19:06.546Z,7.63
2023-01-29T13:21:42.124Z,7.28
2023-01-29T13:24:19.573Z,7.43
2023-01-29T13:26:50.004Z,7.51
2023-01-29T13:29:29.092Z,7.35
2023-01-29T13:31:58.862Z,7.48
2023-01-29T13:34:45.740Z,7.43
2023-01-29T13:37:40.123Z,7.51
2023-01-29T13:40:07.836Z,7.65
2023-01-29T13:42:52.635Z,7.66
2023-01-29T13:45:45.616Z,7.71
2023-01-29T13:48:53.934Z,7.77
2023-01-29T13:51:30.941Z,7.70
2023-01-29T13:54:10.298Z,7.48
2023-01-29T13:56:48.159Z,7.73
2023-01-29T13:59:46.825Z,7.69
2023-01-29T14:02:38.209Z,7.78
2023-01-29T14:05:36.454Z,7.79
2023-01-29T14:08:08.918Z,7.74
2023-01-29T14:10:41.988Z,7.80
2023-01-29T14:13:11.777Z,7.80
2023-01-29T14:15:41.768Z,7.72
2023-01-29T14:18:11.421Z,7.79
2023-01-29T14:20:46.413Z,7.62
2023-01-29T14:23:55.326Z,7.90
2023-01-29T14:29:49.941Z,7.63
2023-01-29T14:35:49.448Z,7.15
2023-01-29T14:38:17.470Z,7.66
2023-01-29T14:40:57.495Z,7.51
2023-01-29T14:43:24.648Z,7.86
2023-01-29T14:46:00.487Z,7.85
2023-01-29T14:49:07.660Z,7.87
2023-01-29T14:52:06.652Z,7.93
2023-01-29T14:55:00.584Z,7.78
2023-01-29T14:57:44.519Z,7.83
2023-01-29T15:00:46.070Z,7.59
2023-01-29T15:03:40.952Z,7.75
2023-01-29T15:06:44.882Z,7.52
2023-01-29T15:09:41.809Z,7.59
2023-01-29T15:12:21.091Z,7.49
2023-01-29T15:15:10.540Z,7.64
2023-01-29T15:17:57.296Z,7.30
2023-01-29T15:20:39.400Z,7.77
2023-01-29T15:23:46.759Z,7.74
2023-01-29T15:26:27.087Z,7.80
2023-01-29T15:29:05.928Z,7.47
2023-01-29T15:31:46.889Z,7.83
2023-01-29T15:34:28.411Z,7.27
2023-01-29T15:36:55.471Z,7.72
2023-01-29T15:39:31.740Z,7.32
2023-01-29T15:42:21.711Z,7.57
2023-01-29T15:44:57.686Z,7.45
2023-01-29T15:47:42.651Z,7.62
2023-01-29T15:50:17.649Z,7.28
2023-01-29T15:53:02.668Z,7.47
2023-01-29T15:55:34.061Z,7.35
2023-01-29T15:58:04.679Z,6.89
2023-01-29T16:00:34.605Z,7.42
2023-01-29T16:03:19.219Z,7.51
2023-01-29T16:05:48.699Z,7.30
2023-01-29T16:08:26.991Z,7.43
2023-01-29T16:11:01.853Z,7.21
2023-01-29T16:13:43.725Z,7.29
2023-01-29T16:16:26.991Z,7.02
2023-01-29T16:19:01.360Z,7.15
2023-01-29T16:21:47.590Z,6.94
2023-01-29T16:24:25.855Z,6.96
2023-01-29T16:27:02.142Z,6.80
2023-01-29T16:29:34.323Z,7.11
2023-01-29T16:32:08.523Z,6.97
2023-01-29T16:34:46.359Z,6.73
2023-01-29T16:37:39.873Z,6.81
2023-01-29T16:40:28.828Z,6.57
2023-01-29T16:43:17.952Z,6.69
2023-01-29T16:46:32.007Z,6.43
2023-01-29T16:49:08.426Z,6.55
2023-01-29T16:51:42.070Z,6.48
2023-01-29T16:54:20.017Z,6.47
2023-01-29T16:56:55.619Z,6.70
2023-01-29T16:59:42.228Z,6.59
2023-01-29T17:02:37.015Z,5.76
2023-01-29T17:05:10.216Z,6.22
2023-01-29T17:07:38.222Z,6.06
2023-01-29T17:10:08.831Z,6.13
2023-01-29T17:12:40.707Z,6.32
2023-01-29T17:15:35.145Z,6.30
2023-01-29T17:18:02.878Z,6.28
2023-01-29T17:20:33.012Z,6.22
2023-01-29T17:23:03.397Z,6.18
2023-01-29T17:25:33.912Z,6.19
2023-01-29T17:28:06.916Z,6.19
2023-01-29T17:30:40.801Z,5.60
2023-01-29T17:33:32.051Z,6.08
2023-01-29T17:36:06.759Z,5.85
2023-01-29T17:38:33.757Z,5.78
2023-01-29T17:41:21.747Z,5.64
2023-01-29T17:43:49.288Z,5.92
2023-01-29T17:46:19.028Z,6.12
2023-01-29T17:48:54.076Z,6.07
2023-01-29T17:51:23.419Z,5.89
2023-01-29T17:54:00.473Z,5.90
2023-01-29T17:56:27.670Z,6.11
2023-01-29T17:58:59.186Z,5.76
2023-01-29T18:01:26.889Z,5.49
2023-01-29T18:03:53.659Z,5.93
2023-01-29T18:06:33.489Z,5.79
2023-01-29T18:09:00.124Z,5.75
2023-01-29T18:11:28.303Z,5.46
2023-01-29T18:14:14.221Z,5.34
2023-01-29T18:16:50.937Z,5.59
2023-01-29T18:19:31.281Z,5.71
2023-01-29T18:21:58.294Z,5.72
2023-01-29T18:24:38.184Z,5.71
2023-01-29T18:27:04.922Z,5.22
2023-01-29T18:29:37.820Z,5.32
2023-01-29T18:32:04.785Z,5.30
2023-01-29T18:34:31.787Z,5.78
2023-01-29T18:36:59.749Z,5.54
2023-01-29T18:39:30.803Z,5.53
2023-01-29T18:41:58.311Z,5.77
2023-01-29T18:44:32.896Z,5.54
2023-01-29T18:47:18.314Z,5.46
2023-01-29T18:50:10.333Z,5.52
2023-01-29T18:52:37.598Z,5.32
2023-01-29T18:55:10.855Z,5.37
2023-01-29T18:58:28.577Z,5.40
2023-01-29T19:00:27.030Z,5.38
2023-01-29T19:02:59.913Z,5.38
2023-01-29T19:05:29.817Z,5.34
2023-01-29T19:07:56.693Z,5.09
2023-01-29T19:10:23.342Z,5.26
2023-01-29T19:12:50.415Z,5.22
2023-01-29T19:15:23.337Z,4.80
2023-01-29T19:17:56.106Z,5.12
2023-01-29T19:20:22.852Z,5.10
2023-01-29T19:23:02.279Z,4.72
2023-01-29T19:25:28.785Z,5.10
2023-01-29T19:27:55.331Z,4.58
2023-01-29T19:30:24.695Z,4.32
2023-01-29T19:32:53.540Z,4.82
2023-01-29T19:35:20.292Z,4.95
2023-01-29T19:37:47.043Z,4.85
2023-01-29T19:40:14.975Z,4.01
2023-01-29T19:45:37.370Z,5.10
2023-01-29T19:48:20.414Z,5.04
2023-01-29T19:51:18.154Z,4.87
2023-01-29T19:53:53.106Z,4.91
2023-01-29T19:56:22.448Z,4.92
2023-01-29T19:58:49.866Z,4.85
2023-01-29T20:01:20.220Z,4.78
2023-01-29T20:03:49.415Z,4.49
2023-01-29T20:06:22.129Z,4.61
2023-01-29T20:08:48.943Z,4.73
2023-01-29T20:11:27.946Z,4.53
2023-01-29T20:13:57.708Z,4.45
2023-01-29T20:16:26.073Z,4.67
2023-01-29T20:18:52.856Z,4.73
2023-01-29T20:21:22.186Z,4.53
2023-01-29T20:23:51.463Z,4.36
2023-01-29T20:26:22.168Z,4.59
2023-01-29T20:28:49.221Z,4.70
2023-01-29T20:31:24.988Z,4.17
2023-01-29T20:33:51.828Z,4.57
2023-01-29T20:36:20.231Z,4.78
2023-01-29T20:38:50.123Z,4.33
2023-01-29T20:41:19.336Z,4.68
2023-01-29T20:43:49.549Z,4.63
2023-01-29T20:46:16.953Z,4.42
2023-01-29T20:48:47.389Z,4.57
2023-01-29T20:51:21.016Z,4.52
2023-01-29T20:54:00.478Z,4.49
2023-01-29T20:56:39.055Z,4.57
2023-01-29T20:59:13.595Z,4.33
2023-01-29T21:01:41.014Z,4.41
2023-01-29T21:04:07.924Z,4.46
2023-01-29T21:06:40.653Z,4.22
2023-01-29T21:09:07.460Z,4.27
2023-01-29T21:11:34.189Z,4.14
2023-01-29T21:14:02.031Z,4.48
2023-01-29T21:16:28.984Z,4.32
2023-01-29T21:19:07.721Z,4.70
2023-01-29T21:21:35.004Z,4.59
2023-01-29T21:24:01.665Z,4.45
2023-01-29T21:26:28.449Z,4.37
2023-01-29T21:28:56.161Z,4.36
2023-01-29T21:31:31.983Z,4.32
2023-01-29T21:34:06.648Z,4.54
2023-01-29T21:36:34.687Z,4.34
2023-01-29T21:39:01.886Z,4.44
2023-01-29T21:41:47.151Z,4.34
2023-01-29T21:44:13.901Z,3.94
2023-01-29T21:46:40.471Z,4.40
2023-01-29T21:49:07.505Z,4.55
2023-01-29T21:51:44.203Z,4.22
2023-01-29T21:54:18.988Z,4.26
2023-01-29T21:56:55.873Z,4.49
2023-01-29T21:59:22.525Z,3.91
2023-01-29T22:01:49.642Z,4.33
2023-01-29T22:04:18.915Z,4.22
2023-01-29T22:06:46.463Z,4.40
2023-01-29T22:09:15.870Z,4.43
2023-01-29T22:11:52.016Z,4.29
2023-01-29T22:14:25.806Z,4.17
2023-01-29T22:16:59.041Z,4.46
2023-01-29T22:19:29.720Z,4.55
2023-01-29T22:21:56.652Z,4.01
2023-01-29T22:24:23.344Z,4.38
2023-01-29T22:26:59.837Z,4.34
2023-01-29T22:29:29.258Z,4.11
2023-01-29T22:31:59.166Z,4.26
2023-01-29T22:34:27.940Z,4.37
2023-01-29T22:36:54.513Z,4.14
2023-01-29T22:39:33.271Z,4.19
2023-01-29T22:42:06.258Z,4.16
2023-01-29T22:44:49.749Z,4.10
2023-01-29T22:47:18.086Z,4.16
2023-01-29T22:49:56.989Z,4.09
2023-01-29T22:52:23.855Z,3.45
2023-01-29T22:54:51.566Z,4.18
2023-01-29T22:57:19.343Z,4.16
2023-01-29T22:59:49.113Z,3.87
2023-01-29T23:02:22.621Z,4.18
2023-01-29T23:04:51.418Z,4.28
2023-01-29T23:07:34.306Z,4.05
2023-01-29T23:10:01.092Z,4.03
2023-01-29T23:12:34.797Z,4.15
2023-01-29T23:15:01.341Z,3.97
2023-01-29T23:17:41.741Z,4.16
2023-01-29T23:20:16.989Z,3.59
2023-01-29T23:22:43.648Z,3.96
2023-01-29T23:25:10.241Z,3.86
2023-01-29T23:27:44.779Z,3.67
2023-01-29T23:30:11.836Z,3.83
2023-01-29T23:32:41.332Z,3.26
2023-01-29T23:35:11.689Z,3.60
2023-01-29T23:37:39.952Z,3.61
2023-01-29T23:40:09.748Z,3.46
2023-01-29T23:42:39.097Z,3.38
2023-01-29T23:45:15.996Z,3.85
2023-01-29T23:47:48.157Z,3.80
2023-01-29T23:50:23.074Z,3.39
2023-01-29T23:52:55.512Z,3.60
2023-01-29T23:55:22.036Z,3.63
2023-01-29T23:57:53.389Z,3.49
